createdAt,value
2018-05-09T00:09:06.656Z,76.21
2018-05-09T00:14:01.594Z,76.21
2018-05-09T00:19:11.575Z,77.39
2018-05-09T00:29:05.745Z,78.40
2018-05-09T00:34:01.603Z,78.40
2018-05-09T00:39:01.652Z,79.42
2018-05-09T00:49:05.825Z,79.89
2018-05-09T00:54:01.573Z,79.89
2018-05-09T00:59:04.727Z,80.35
2018-05-09T01:14:02.624Z,80.42
2018-05-09T01:19:06.812Z,81.13
2018-05-09T01:34:03.643Z,81.35
2018-05-09T01:44:06.580Z,82.10
2018-05-09T01:54:01.689Z,82.63
2018-05-09T01:59:04.838Z,82.95
2018-05-09T02:04:02.541Z,82.95
2018-05-09T02:14:01.567Z,83.45
2018-05-09T02:29:01.735Z,83.97
2018-05-09T02:44:01.785Z,84.00
2018-05-09T02:59:01.784Z,84.34
2018-05-09T03:04:01.939Z,84.34
2018-05-09T03:19:01.802Z,84.95
2018-05-09T03:34:01.733Z,85.02
2018-05-09T03:49:01.799Z,85.64
2018-05-09T03:59:01.809Z,85.53
2018-05-09T04:09:01.652Z,85.34
2018-05-09T04:19:01.621Z,84.77
2018-05-09T04:24:01.782Z,84.77
2018-05-09T04:29:01.659Z,84.17
2018-05-09T04:39:06.674Z,83.54
2018-05-09T04:49:01.705Z,82.81
2018-05-09T04:54:01.644Z,82.81
2018-05-09T04:59:01.684Z,81.85
2018-05-09T05:04:01.676Z,81.85
2018-05-09T05:09:01.643Z,81.02
2018-05-09T05:14:02.755Z,81.02
2018-05-09T05:19:01.640Z,80.38
2018-05-09T05:30:01.660Z,79.11
2018-05-09T05:35:01.816Z,79.11
2018-05-09T05:40:01.641Z,78.74
2018-05-09T05:45:02.405Z,78.74
2018-05-09T05:50:02.566Z,78.25
2018-05-09T05:55:01.505Z,78.25
2018-05-09T06:00:06.654Z,77.57
2018-05-09T06:05:01.530Z,77.57
2018-05-09T06:10:10.721Z,75.72
2018-05-09T06:15:06.649Z,75.72
2018-05-09T06:20:03.670Z,74.77
2018-05-09T06:25:01.471Z,74.77
2018-05-09T06:30:06.740Z,72.54
2018-05-09T06:35:01.575Z,72.54
2018-05-09T06:40:06.545Z,71.96
2018-05-09T06:45:01.745Z,71.96
2018-05-09T06:50:03.911Z,70.69
2018-05-09T06:55:06.591Z,70.69
2018-05-09T07:00:04.844Z,69.26
2018-05-09T07:05:01.557Z,69.26
2018-05-09T07:10:03.692Z,67.87
2018-05-09T07:15:06.800Z,67.87
2018-05-09T07:20:06.544Z,66.57
2018-05-09T07:25:01.476Z,66.57
2018-05-09T07:30:06.790Z,65.49
2018-05-09T07:35:02.654Z,65.49
2018-05-09T07:40:01.511Z,64.45
2018-05-09T07:45:01.656Z,64.45
2018-05-09T07:50:01.548Z,62.86
2018-05-09T07:55:01.590Z,62.86
2018-05-09T08:00:02.796Z,62.60
2018-05-09T08:05:01.504Z,62.60
2018-05-09T08:10:06.670Z,61.24
2018-05-09T08:15:01.495Z,61.24
2018-05-09T08:20:02.661Z,60.40
2018-05-09T08:25:01.538Z,60.40
2018-05-09T08:30:06.713Z,59.43
2018-05-09T08:35:01.528Z,59.43
2018-05-09T08:40:02.530Z,57.93
2018-05-09T08:45:01.641Z,57.93
2018-05-09T08:50:01.615Z,58.16
2018-05-09T08:55:01.582Z,58.16
2018-05-09T09:00:01.838Z,58.21
2018-05-09T09:05:01.551Z,58.21
2018-05-09T09:10:01.538Z,57.70
2018-05-09T09:15:01.668Z,57.70
2018-05-09T09:20:06.504Z,55.56
2018-05-09T09:30:06.570Z,56.86
2018-05-09T09:45:05.858Z,55.84
2018-05-09T09:50:01.613Z,53.81
2018-05-09T09:55:06.485Z,53.81
2018-05-09T10:00:05.944Z,53.34
2018-05-09T10:05:01.524Z,53.34
2018-05-09T10:10:06.718Z,54.24
2018-05-09T10:15:01.714Z,54.24
2018-05-09T10:20:01.573Z,53.59
2018-05-09T10:30:01.752Z,52.64
2018-05-09T10:35:01.540Z,52.64
2018-05-09T10:40:01.582Z,51.22
2018-05-09T10:45:01.686Z,51.22
2018-05-09T10:50:02.564Z,51.17
2018-05-09T10:55:01.610Z,51.17
2018-05-09T11:00:06.728Z,50.26
2018-05-09T11:10:02.604Z,49.63
2018-05-09T11:15:01.770Z,49.63
2018-05-09T11:20:01.742Z,48.63
2018-05-09T11:30:01.810Z,48.28
2018-05-09T11:45:02.653Z,48.20
2018-05-09T11:55:01.700Z,47.84
2018-05-09T12:00:01.749Z,47.58
2018-05-09T12:10:03.691Z,48.05
2018-05-09T12:15:01.886Z,48.05
2018-05-09T12:30:02.658Z,48.03
2018-05-09T12:45:12.752Z,48.49
2018-05-09T13:00:09.799Z,46.84
2018-05-09T13:05:01.565Z,46.84
2018-05-09T13:15:06.765Z,47.61
2018-05-09T13:20:02.563Z,47.43
2018-05-09T13:25:06.492Z,47.43
2018-05-09T13:30:07.728Z,48.03
2018-05-09T13:35:06.541Z,48.03
2018-05-09T13:40:11.795Z,48.35
2018-05-09T13:45:06.728Z,48.35
2018-05-09T13:55:06.525Z,49.18
2018-05-09T14:00:02.721Z,49.87
2018-05-09T14:10:01.961Z,49.88
2018-05-09T14:15:01.831Z,49.88
2018-05-09T14:30:07.487Z,50.26
2018-05-09T14:35:01.651Z,50.26
2018-05-09T14:40:01.557Z,50.85
2018-05-09T14:45:01.625Z,50.85
2018-05-09T15:00:11.980Z,51.91
2018-05-09T15:05:01.596Z,51.91
2018-05-09T15:10:09.677Z,52.22
2018-05-09T15:15:06.641Z,52.22
2018-05-09T15:20:06.585Z,52.13
2018-05-09T15:25:02.643Z,52.13
2018-05-09T15:30:01.741Z,51.69
2018-05-09T15:40:02.716Z,51.52
2018-05-09T15:45:01.663Z,51.52
2018-05-09T15:50:06.706Z,52.21
2018-05-09T15:56:01.534Z,52.21
2018-05-09T16:01:01.552Z,53.63
2018-05-09T16:06:01.538Z,53.63
2018-05-09T16:11:01.546Z,55.50
2018-05-09T16:16:01.564Z,55.50
2018-05-09T16:21:06.836Z,56.42
2018-05-09T16:26:06.658Z,56.42
2018-05-09T16:31:02.741Z,56.80
2018-05-09T16:36:01.583Z,56.80
2018-05-09T16:41:01.692Z,56.83
2018-05-09T16:46:01.635Z,56.83
2018-05-09T16:51:01.711Z,56.46
2018-05-09T16:56:01.680Z,56.46
2018-05-09T17:01:06.835Z,55.50
2018-05-09T17:06:06.758Z,55.50
2018-05-09T17:11:01.766Z,55.44
2018-05-09T17:16:01.752Z,55.44
2018-05-09T17:21:01.711Z,55.24
2018-05-09T17:26:01.705Z,55.24
2018-05-09T17:31:02.766Z,56.08
2018-05-09T17:36:01.667Z,56.08
2018-05-09T17:41:01.677Z,55.74
2018-05-09T17:51:01.868Z,58.31
2018-05-09T17:56:02.819Z,58.31
2018-05-09T18:01:01.846Z,60.01
2018-05-09T18:06:01.647Z,60.01
2018-05-09T18:11:01.643Z,61.43
2018-05-09T18:16:01.740Z,61.43
2018-05-09T18:21:01.708Z,62.11
2018-05-09T18:26:01.708Z,62.11
2018-05-09T18:32:06.654Z,62.92
2018-05-09T18:37:02.799Z,63.45
2018-05-09T18:42:01.714Z,63.45
2018-05-09T18:47:01.652Z,64.17
2018-05-09T18:52:01.645Z,64.17
2018-05-09T18:57:06.683Z,64.47
2018-05-09T19:07:01.673Z,64.72
2018-05-09T19:12:01.655Z,64.72
2018-05-09T19:17:01.685Z,65.77
2018-05-09T19:22:01.699Z,65.77
2018-05-09T19:27:01.644Z,66.35
2018-05-09T19:37:01.487Z,67.71
2018-05-09T19:42:01.587Z,67.71
2018-05-09T19:47:01.525Z,68.18
2018-05-09T19:52:01.626Z,68.18
2018-05-09T19:57:01.573Z,69.23
2018-05-09T20:02:01.618Z,69.23
2018-05-09T20:07:01.592Z,70.19
2018-05-09T20:17:01.636Z,71.21
2018-05-09T20:22:01.539Z,71.21
2018-05-09T20:27:01.550Z,72.14
2018-05-09T20:37:01.567Z,72.89
2018-05-09T20:42:01.612Z,72.89
2018-05-09T20:47:01.569Z,73.24
2018-05-09T21:02:02.522Z,73.97
2018-05-09T21:12:03.616Z,74.64
2018-05-09T21:17:01.471Z,75.34
2018-05-09T21:27:06.656Z,75.74
2018-05-09T21:42:16.666Z,76.20
2018-05-09T21:52:04.788Z,76.96
2018-05-09T22:02:02.491Z,77.52
2018-05-09T22:13:05.710Z,78.07
2018-05-09T22:23:01.845Z,78.67
2018-05-09T22:38:02.582Z,79.58
2018-05-09T22:48:01.801Z,79.77
2018-05-09T22:58:06.630Z,80.40
2018-05-09T23:13:01.624Z,81.08
2018-05-09T23:23:01.559Z,81.40
2018-05-09T23:38:04.824Z,82.34
2018-05-09T23:53:06.506Z,82.28
2018-05-09T23:58:06.511Z,82.36
